sensor_id;sensor_type;location;lat;lon;timestamp;pressure;altitude;pressure_sealevel;temperature;humidity
54556;BME280;57291;37.520;15.106;2024-03-02T00:00:22;100679.38;;;10.96;100.00
54556;BME280;57291;37.520;15.106;2024-03-02T00:02:50;100675.94;;;10.90;100.00
54556;BME280;57291;37.520;15.106;2024-03-02T00:05:20;100673.22;;;10.90;100.00
54556;BME280;57291;37.520;15.106;2024-03-02T00:07:53;100668.16;;;10.84;100.00
54556;BME280;57291;37.520;15.106;2024-03-02T00:10:27;100663.53;;;10.84;100.00
54556;BME280;57291;37.520;15.106;2024-03-02T00:12:59;100661.72;;;10.79;100.00
54556;BME280;57291;37.520;15.106;2024-03-02T00:17:57;100656.56;;;10.78;100.00
54556;BME280;57291;37.520;15.106;2024-03-02T00:20:26;100652.13;;;10.82;100.00
54556;BME280;57291;37.520;15.106;2024-03-02T00:23:03;100656.75;;;10.82;100.00
54556;BME280;57291;37.520;15.106;2024-03-02T00:28:19;100648.53;;;10.87;100.00
54556;BME280;57291;37.520;15.106;2024-03-02T00:33:37;100636.66;;;10.83;100.00
54556;BME280;57291;37.520;15.106;2024-03-02T00:36:07;100644.28;;;10.80;100.00
54556;BME280;57291;37.520;15.106;2024-03-02T00:41:36;100640.25;;;10.78;100.00
54556;BME280;57291;37.520;15.106;2024-03-02T00:44:03;100632.09;;;10.78;100.00
54556;BME280;57291;37.520;15.106;2024-03-02T00:46:34;100644.56;;;10.79;100.00
54556;BME280;57291;37.520;15.106;2024-03-02T00:51:34;100641.94;;;10.74;100.00
54556;BME280;57291;37.520;15.106;2024-03-02T00:54:04;100641.34;;;10.77;100.00
54556;BME280;57291;37.520;15.106;2024-03-02T00:56:33;100632.88;;;10.78;100.00
54556;BME280;57291;37.520;15.106;2024-03-02T00:59:02;100635.59;;;10.78;100.00
54556;BME280;57291;37.520;15.106;2024-03-02T01:01:29;100637.53;;;10.78;100.00
54556;BME280;57291;37.520;15.106;2024-03-02T01:03:57;100635.59;;;10.78;100.00
54556;BME280;57291;37.520;15.106;2024-03-02T01:06:24;100625.53;;;10.79;100.00
54556;BME280;57291;37.520;15.106;2024-03-02T01:08:51;100623.19;;;10.72;100.00
54556;BME280;57291;37.520;15.106;2024-03-02T01:11:20;100624.53;;;10.75;100.00
54556;BME280;57291;37.520;15.106;2024-03-02T01:13:50;100628.88;;;10.76;100.00
54556;BME280;57291;37.520;15.106;2024-03-02T01:16:19;100622.31;;;10.77;100.00
54556;BME280;57291;37.520;15.106;2024-03-02T01:18:47;100623.34;;;10.81;100.00
54556;BME280;57291;37.520;15.106;2024-03-02T01:21:15;100614.59;;;10.84;100.00
54556;BME280;57291;37.520;15.106;2024-03-02T01:23:42;100628.09;;;10.89;100.00
54556;BME280;57291;37.520;15.106;2024-03-02T01:26:10;100628.91;;;10.90;100.00
54556;BME280;57291;37.520;15.106;2024-03-02T01:28:38;100631.72;;;10.98;99.58
54556;BME280;57291;37.520;15.106;2024-03-02T01:31:06;100632.50;;;10.99;99.52
54556;BME280;57291;37.520;15.106;2024-03-02T01:33:33;100634.94;;;11.00;99.23
54556;BME280;57291;37.520;15.106;2024-03-02T01:36:00;100634.44;;;10.98;98.83
54556;BME280;57291;37.520;15.106;2024-03-02T01:38:28;100637.47;;;10.97;98.79
54556;BME280;57291;37.520;15.106;2024-03-02T01:40:55;100631.31;;;10.91;99.03
54556;BME280;57291;37.520;15.106;2024-03-02T01:43:24;100644.19;;;10.86;99.47
54556;BME280;57291;37.520;15.106;2024-03-02T01:45:51;100644.63;;;10.93;99.77
54556;BME280;57291;37.520;15.106;2024-03-02T01:48:18;100645.91;;;10.95;99.16
54556;BME280;57291;37.520;15.106;2024-03-02T01:50:46;100644.03;;;10.96;99.42
54556;BME280;57291;37.520;15.106;2024-03-02T01:53:14;100642.78;;;11.02;98.96
54556;BME280;57291;37.520;15.106;2024-03-02T01:55:41;100646.34;;;11.02;98.21
54556;BME280;57291;37.520;15.106;2024-03-02T01:58:09;100641.72;;;11.03;98.35
54556;BME280;57291;37.520;15.106;2024-03-02T02:00:36;100649.66;;;10.99;98.38
54556;BME280;57291;37.520;15.106;2024-03-02T02:03:04;100645.09;;;10.95;98.74
54556;BME280;57291;37.520;15.106;2024-03-02T02:05:32;100639.19;;;10.93;98.68
54556;BME280;57291;37.520;15.106;2024-03-02T02:08:00;100639.47;;;10.91;98.92
54556;BME280;57291;37.520;15.106;2024-03-02T02:10:28;100637.75;;;10.95;98.62
54556;BME280;57291;37.520;15.106;2024-03-02T02:12:55;100640.69;;;10.99;98.87
54556;BME280;57291;37.520;15.106;2024-03-02T02:15:24;100633.44;;;10.94;98.96
54556;BME280;57291;37.520;15.106;2024-03-02T02:17:53;100629.59;;;10.95;98.96
54556;BME280;57291;37.520;15.106;2024-03-02T02:20:20;100637.75;;;10.95;99.18
54556;BME280;57291;37.520;15.106;2024-03-02T02:25:26;100633.16;;;10.96;99.52
54556;BME280;57291;37.520;15.106;2024-03-02T02:27:53;100635.63;;;10.92;99.21
54556;BME280;57291;37.520;15.106;2024-03-02T02:30:27;100632.91;;;10.92;99.41
54556;BME280;57291;37.520;15.106;2024-03-02T02:32:55;100634.53;;;10.93;99.41
54556;BME280;57291;37.520;15.106;2024-03-02T02:35:23;100638.06;;;10.94;99.51
54556;BME280;57291;37.520;15.106;2024-03-02T02:37:54;100634.81;;;10.92;99.54
54556;BME280;57291;37.520;15.106;2024-03-02T02:40:22;100632.09;;;10.92;99.84
54556;BME280;57291;37.520;15.106;2024-03-02T02:42:50;100631.31;;;10.91;99.79
54556;BME280;57291;37.520;15.106;2024-03-02T02:45:21;100627.91;;;10.99;99.99
54556;BME280;57291;37.520;15.106;2024-03-02T02:47:49;100630.91;;;10.98;99.83
54556;BME280;57291;37.520;15.106;2024-03-02T02:50:17;100632.03;;;10.97;99.64
54556;BME280;57291;37.520;15.106;2024-03-02T02:52:44;100635.03;;;10.95;99.92
54556;BME280;57291;37.520;15.106;2024-03-02T02:55:13;100647.03;;;10.94;100.00
54556;BME280;57291;37.520;15.106;2024-03-02T02:57:41;100647.63;;;10.91;100.00
54556;BME280;57291;37.520;15.106;2024-03-02T03:00:15;100655.88;;;10.86;100.00
54556;BME280;57291;37.520;15.106;2024-03-02T03:02:48;100653.97;;;10.87;100.00
54556;BME280;57291;37.520;15.106;2024-03-02T03:05:18;100658.59;;;10.86;100.00
54556;BME280;57291;37.520;15.106;2024-03-02T03:07:45;100665.72;;;10.82;100.00
54556;BME280;57291;37.520;15.106;2024-03-02T03:10:16;100657.56;;;10.82;100.00
54556;BME280;57291;37.520;15.106;2024-03-02T03:12:44;100666.84;;;10.81;100.00
54556;BME280;57291;37.520;15.106;2024-03-02T03:15:11;100665.94;;;10.86;100.00
54556;BME280;57291;37.520;15.106;2024-03-02T03:17:40;100674.09;;;10.86;100.00
54556;BME280;57291;37.520;15.106;2024-03-02T03:20:08;100674.41;;;10.84;100.00
54556;BME280;57291;37.520;15.106;2024-03-02T03:22:38;100678.72;;;10.85;100.00
54556;BME280;57291;37.520;15.106;2024-03-02T03:25:06;100671.16;;;10.82;100.00
54556;BME280;57291;37.520;15.106;2024-03-02T03:27:36;100673.38;;;10.80;100.00
54556;BME280;57291;37.520;15.106;2024-03-02T03:30:04;100673.19;;;10.76;100.00
54556;BME280;57291;37.520;15.106;2024-03-02T03:32:34;100672.72;;;10.69;100.00
54556;BME280;57291;37.520;15.106;2024-03-02T03:35:01;100680.66;;;10.66;100.00
54556;BME280;57291;37.520;15.106;2024-03-02T03:37:29;100683.47;;;10.61;100.00
54556;BME280;57291;37.520;15.106;2024-03-02T03:40:02;100685.47;;;10.55;100.00
54556;BME280;57291;37.520;15.106;2024-03-02T03:42:34;100670.88;;;10.51;100.00
54556;BME280;57291;37.520;15.106;2024-03-02T03:45:01;100674.47;;;10.46;100.00
54556;BME280;57291;37.520;15.106;2024-03-02T03:47:31;100680.19;;;10.45;100.00
54556;BME280;57291;37.520;15.106;2024-03-02T03:49:58;100686.16;;;10.47;100.00
54556;BME280;57291;37.520;15.106;2024-03-02T03:52:26;100677.69;;;10.48;100.00
54556;BME280;57291;37.520;15.106;2024-03-02T03:54:53;100684.72;;;10.49;100.00
54556;BME280;57291;37.520;15.106;2024-03-02T03:57:20;100696.06;;;10.56;100.00
54556;BME280;57291;37.520;15.106;2024-03-02T03:59:48;100687.00;;;10.61;100.00
54556;BME280;57291;37.520;15.106;2024-03-02T04:02:15;100690.94;;;10.69;100.00
54556;BME280;57291;37.520;15.106;2024-03-02T04:04:42;100689.47;;;10.76;100.00
54556;BME280;57291;37.520;15.106;2024-03-02T04:07:10;100691.31;;;10.81;100.00
54556;BME280;57291;37.520;15.106;2024-03-02T04:09:37;100691.50;;;10.85;99.29
54556;BME280;57291;37.520;15.106;2024-03-02T04:12:05;100694.66;;;10.92;98.36
54556;BME280;57291;37.520;15.106;2024-03-02T04:14:33;100702.22;;;10.95;97.69
54556;BME280;57291;37.520;15.106;2024-03-02T04:17:00;100698.41;;;10.96;97.25
54556;BME280;57291;37.520;15.106;2024-03-02T04:19:28;100706.25;;;10.97;96.79
54556;BME280;57291;37.520;15.106;2024-03-02T04:21:55;100713.00;;;11.00;96.22
54556;BME280;57291;37.520;15.106;2024-03-02T04:24:23;100720.25;;;11.04;95.66
54556;BME280;57291;37.520;15.106;2024-03-02T04:26:50;100721.06;;;11.05;95.44
54556;BME280;57291;37.520;15.106;2024-03-02T04:29:18;100703.16;;;11.04;95.69
54556;BME280;57291;37.520;15.106;2024-03-02T04:31:45;100711.91;;;11.01;96.00
54556;BME280;57291;37.520;15.106;2024-03-02T04:34:13;100711.69;;;10.97;95.86
54556;BME280;57291;37.520;15.106;2024-03-02T04:36:40;100710.97;;;10.92;96.27
54556;BME280;57291;37.520;15.106;2024-03-02T04:39:07;100713.56;;;10.83;96.85
54556;BME280;57291;37.520;15.106;2024-03-02T04:41:36;100718.59;;;10.76;97.18
54556;BME280;57291;37.520;15.106;2024-03-02T04:44:04;100720.03;;;10.68;97.70
54556;BME280;57291;37.520;15.106;2024-03-02T04:46:31;100739.44;;;10.62;98.18
54556;BME280;57291;37.520;15.106;2024-03-02T04:48:58;100742.75;;;10.59;98.49
54556;BME280;57291;37.520;15.106;2024-03-02T04:51:26;100747.97;;;10.55;99.04
54556;BME280;57291;37.520;15.106;2024-03-02T04:53:53;100737.69;;;10.52;99.24
54556;BME280;57291;37.520;15.106;2024-03-02T04:56:21;100746.16;;;10.50;99.74
54556;BME280;57291;37.520;15.106;2024-03-02T04:59:06;100733.50;;;10.60;99.64
54556;BME280;57291;37.520;15.106;2024-03-02T05:01:34;100723.88;;;10.67;99.36
54556;BME280;57291;37.520;15.106;2024-03-02T05:04:01;100718.41;;;10.86;98.54
54556;BME280;57291;37.520;15.106;2024-03-02T05:06:29;100715.00;;;10.94;97.96
54556;BME280;57291;37.520;15.106;2024-03-02T05:08:57;100724.09;;;11.03;97.48
54556;BME280;57291;37.520;15.106;2024-03-02T05:11:24;100735.72;;;11.09;97.15
54556;BME280;57291;37.520;15.106;2024-03-02T05:14:06;100725.63;;;11.10;96.88
54556;BME280;57291;37.520;15.106;2024-03-02T05:16:34;100729.44;;;11.09;96.67
54556;BME280;57291;37.520;15.106;2024-03-02T05:19:02;100738.13;;;11.11;96.30
54556;BME280;57291;37.520;15.106;2024-03-02T05:21:29;100735.72;;;11.09;96.19
54556;BME280;57291;37.520;15.106;2024-03-02T05:23:57;100745.75;;;11.09;96.27
54556;BME280;57291;37.520;15.106;2024-03-02T05:26:24;100748.47;;;11.09;96.19
54556;BME280;57291;37.520;15.106;2024-03-02T05:28:51;100746.28;;;11.11;95.90
54556;BME280;57291;37.520;15.106;2024-03-02T05:31:18;100759.22;;;11.19;94.90
54556;BME280;57291;37.520;15.106;2024-03-02T05:33:46;100756.72;;;11.36;93.97
54556;BME280;57291;37.520;15.106;2024-03-02T05:36:13;100759.16;;;11.51;92.61
54556;BME280;57291;37.520;15.106;2024-03-02T05:38:41;100749.31;;;11.69;90.79
54556;BME280;57291;37.520;15.106;2024-03-02T05:41:08;100764.47;;;11.89;89.34
54556;BME280;57291;37.520;15.106;2024-03-02T05:43:35;100768.88;;;12.13;88.04
54556;BME280;57291;37.520;15.106;2024-03-02T05:46:03;100775.81;;;12.33;86.80
54556;BME280;57291;37.520;15.106;2024-03-02T05:48:31;100770.22;;;12.52;85.79
54556;BME280;57291;37.520;15.106;2024-03-02T05:50:59;100771.19;;;12.70;85.22
54556;BME280;57291;37.520;15.106;2024-03-02T05:53:26;100784.03;;;12.91;84.18
54556;BME280;57291;37.520;15.106;2024-03-02T05:55:53;100780.50;;;13.13;83.67
54556;BME280;57291;37.520;15.106;2024-03-02T05:58:22;100784.88;;;13.46;82.05
54556;BME280;57291;37.520;15.106;2024-03-02T06:01:20;100794.25;;;13.84;80.00
54556;BME280;57291;37.520;15.106;2024-03-02T06:03:49;100779.78;;;14.41;78.81
54556;BME280;57291;37.520;15.106;2024-03-02T06:06:17;100777.72;;;14.99;75.56
54556;BME280;57291;37.520;15.106;2024-03-02T06:08:44;100786.09;;;15.11;71.89
54556;BME280;57291;37.520;15.106;2024-03-02T06:11:11;100791.78;;;15.70;70.03
54556;BME280;57291;37.520;15.106;2024-03-02T06:13:39;100789.53;;;16.02;67.87
54556;BME280;57291;37.520;15.106;2024-03-02T06:16:06;100796.50;;;16.50;66.50
54556;BME280;57291;37.520;15.106;2024-03-02T06:18:34;100802.03;;;16.92;64.77
54556;BME280;57291;37.520;15.106;2024-03-02T06:21:01;100808.47;;;17.29;63.08
54556;BME280;57291;37.520;15.106;2024-03-02T06:23:29;100815.84;;;17.50;61.73
54556;BME280;57291;37.520;15.106;2024-03-02T06:25:56;100809.63;;;17.74;61.42
54556;BME280;57291;37.520;15.106;2024-03-02T06:28:23;100828.47;;;18.21;58.42
54556;BME280;57291;37.520;15.106;2024-03-02T06:30:51;100820.41;;;17.79;57.86
54556;BME280;57291;37.520;15.106;2024-03-02T06:33:18;100835.44;;;18.06;58.53
54556;BME280;57291;37.520;15.106;2024-03-02T06:35:45;100831.31;;;18.37;56.83
54556;BME280;57291;37.520;15.106;2024-03-02T06:38:12;100830.97;;;19.03;56.40
54556;BME280;57291;37.520;15.106;2024-03-02T06:40:40;100839.78;;;19.37;53.94
54556;BME280;57291;37.520;15.106;2024-03-02T06:43:07;100839.63;;;19.45;53.58
54556;BME280;57291;37.520;15.106;2024-03-02T06:45:35;100844.25;;;19.57;53.59
54556;BME280;57291;37.520;15.106;2024-03-02T06:48:02;100841.66;;;20.08;53.94
54556;BME280;57291;37.520;15.106;2024-03-02T06:50:29;100853.66;;;20.83;52.92
54556;BME280;57291;37.520;15.106;2024-03-02T06:52:58;100862.59;;;21.15;50.34
54556;BME280;57291;37.520;15.106;2024-03-02T06:55:25;100860.06;;;21.45;49.62
54556;BME280;57291;37.520;15.106;2024-03-02T06:57:52;100862.88;;;21.68;48.96
54556;BME280;57291;37.520;15.106;2024-03-02T07:00:20;100860.06;;;21.88;47.13
54556;BME280;57291;37.520;15.106;2024-03-02T07:02:47;100866.66;;;22.26;46.93
54556;BME280;57291;37.520;15.106;2024-03-02T07:05:15;100867.09;;;22.54;46.49
54556;BME280;57291;37.520;15.106;2024-03-02T07:07:42;100868.66;;;22.82;45.98
54556;BME280;57291;37.520;15.106;2024-03-02T07:10:09;100871.91;;;22.87;43.18
54556;BME280;57291;37.520;15.106;2024-03-02T07:12:37;100876.72;;;23.21;43.73
54556;BME280;57291;37.520;15.106;2024-03-02T07:15:05;100873.19;;;23.24;43.62
54556;BME280;57291;37.520;15.106;2024-03-02T07:17:33;100870.47;;;23.27;43.72
54556;BME280;57291;37.520;15.106;2024-03-02T07:20:00;100876.03;;;22.70;44.30
54556;BME280;57291;37.520;15.106;2024-03-02T07:22:28;100876.41;;;22.42;44.85
54556;BME280;57291;37.520;15.106;2024-03-02T07:24:55;100867.19;;;22.12;45.43
54556;BME280;57291;37.520;15.106;2024-03-02T07:27:22;100873.38;;;22.24;45.73
54556;BME280;57291;37.520;15.106;2024-03-02T07:29:50;100878.59;;;22.86;44.72
54556;BME280;57291;37.520;15.106;2024-03-02T07:32:17;100885.50;;;22.69;43.99
54556;BME280;57291;37.520;15.106;2024-03-02T07:34:44;100891.00;;;22.16;43.27
54556;BME280;57291;37.520;15.106;2024-03-02T07:37:12;100894.31;;;22.02;46.33
54556;BME280;57291;37.520;15.106;2024-03-02T07:39:39;100895.28;;;21.48;46.52
54556;BME280;57291;37.520;15.106;2024-03-02T07:42:07;100908.34;;;20.93;47.59
54556;BME280;57291;37.520;15.106;2024-03-02T07:44:34;100900.63;;;20.83;48.46
54556;BME280;57291;37.520;15.106;2024-03-02T07:47:02;100901.00;;;20.50;48.39
54556;BME280;57291;37.520;15.106;2024-03-02T07:49:29;100904.22;;;20.04;49.26
54556;BME280;57291;37.520;15.106;2024-03-02T07:51:56;100911.13;;;19.82;49.59
54556;BME280;57291;37.520;15.106;2024-03-02T07:54:24;100924.09;;;19.54;50.04
54556;BME280;57291;37.520;15.106;2024-03-02T07:56:52;100920.06;;;19.35;50.64
54556;BME280;57291;37.520;15.106;2024-03-02T07:59:19;100920.19;;;18.86;54.59
54556;BME280;57291;37.520;15.106;2024-03-02T08:01:49;100931.28;;;18.28;55.80
54556;BME280;57291;37.520;15.106;2024-03-02T08:04:17;100927.91;;;17.98;57.25
54556;BME280;57291;37.520;15.106;2024-03-02T08:06:45;100936.34;;;17.39;58.54
54556;BME280;57291;37.520;15.106;2024-03-02T08:09:13;100928.31;;;17.13;57.86
54556;BME280;57291;37.520;15.106;2024-03-02T08:11:40;100934.19;;;16.82;58.83
54556;BME280;57291;37.520;15.106;2024-03-02T08:14:08;100937.28;;;16.72;58.33
54556;BME280;57291;37.520;15.106;2024-03-02T08:16:35;100940.88;;;16.63;59.81
54556;BME280;57291;37.520;15.106;2024-03-02T08:19:02;100947.22;;;16.55;60.51
54556;BME280;57291;37.520;15.106;2024-03-02T08:21:30;100942.13;;;16.36;62.51
54556;BME280;57291;37.520;15.106;2024-03-02T08:23:59;100945.59;;;16.16;64.28
54556;BME280;57291;37.520;15.106;2024-03-02T08:26:27;100946.59;;;16.03;64.75
54556;BME280;57291;37.520;15.106;2024-03-02T08:28:59;100954.00;;;16.02;65.47
54556;BME280;57291;37.520;15.106;2024-03-02T08:31:29;100951.44;;;16.06;65.89
54556;BME280;57291;37.520;15.106;2024-03-02T08:33:56;100962.91;;;15.90;66.97
54556;BME280;57291;37.520;15.106;2024-03-02T08:36:24;100970.28;;;15.99;67.44
54556;BME280;57291;37.520;15.106;2024-03-02T08:38:52;100989.97;;;16.01;67.59
54556;BME280;57291;37.520;15.106;2024-03-02T08:41:19;100995.16;;;15.93;68.32
54556;BME280;57291;37.520;15.106;2024-03-02T08:43:47;100990.63;;;15.63;70.75
54556;BME280;57291;37.520;15.106;2024-03-02T08:46:14;100995.44;;;15.66;74.48
54556;BME280;57291;37.520;15.106;2024-03-02T08:48:42;101006.75;;;15.64;73.99
54556;BME280;57291;37.520;15.106;2024-03-02T08:51:09;101015.31;;;15.80;77.24
54556;BME280;57291;37.520;15.106;2024-03-02T08:53:38;101018.88;;;15.81;77.47
54556;BME280;57291;37.520;15.106;2024-03-02T08:56:05;101020.78;;;15.71;76.24
54556;BME280;57291;37.520;15.106;2024-03-02T08:58:33;101018.00;;;15.63;77.47
54556;BME280;57291;37.520;15.106;2024-03-02T09:01:01;101017.69;;;15.64;76.58
54556;BME280;57291;37.520;15.106;2024-03-02T09:03:29;101024.47;;;15.58;75.22
54556;BME280;57291;37.520;15.106;2024-03-02T09:05:56;101017.91;;;15.68;75.57
54556;BME280;57291;37.520;15.106;2024-03-02T09:08:24;101023.84;;;15.87;73.35
54556;BME280;57291;37.520;15.106;2024-03-02T09:10:52;101028.84;;;15.85;73.29
54556;BME280;57291;37.520;15.106;2024-03-02T09:13:20;101024.00;;;15.82;73.14
54556;BME280;57291;37.520;15.106;2024-03-02T09:15:48;101039.00;;;15.67;74.94
54556;BME280;57291;37.520;15.106;2024-03-02T09:18:15;101042.50;;;15.59;73.04
54556;BME280;57291;37.520;15.106;2024-03-02T09:20:43;101042.19;;;15.61;71.33
54556;BME280;57291;37.520;15.106;2024-03-02T09:23:10;101045.47;;;15.80;72.53
54556;BME280;57291;37.520;15.106;2024-03-02T09:25:37;101049.00;;;15.81;72.08
54556;BME280;57291;37.520;15.106;2024-03-02T09:28:05;101047.56;;;15.75;72.26
54556;BME280;57291;37.520;15.106;2024-03-02T09:30:34;101055.94;;;15.78;71.98
54556;BME280;57291;37.520;15.106;2024-03-02T09:33:01;101057.53;;;15.88;72.00
54556;BME280;57291;37.520;15.106;2024-03-02T09:35:32;101060.44;;;15.91;71.47
54556;BME280;57291;37.520;15.106;2024-03-02T09:37:59;101062.38;;;16.08;70.84
54556;BME280;57291;37.520;15.106;2024-03-02T09:40:27;101055.13;;;16.04;69.91
54556;BME280;57291;37.520;15.106;2024-03-02T09:42:55;101059.16;;;15.98;69.70
54556;BME280;57291;37.520;15.106;2024-03-02T09:45:24;101060.44;;;15.91;70.99
54556;BME280;57291;37.520;15.106;2024-03-02T09:47:52;101065.13;;;15.74;73.38
54556;BME280;57291;37.520;15.106;2024-03-02T09:50:20;101063.78;;;15.54;74.99
54556;BME280;57291;37.520;15.106;2024-03-02T09:52:50;101067.81;;;15.47;75.28
54556;BME280;57291;37.520;15.106;2024-03-02T09:55:18;101070.22;;;15.49;76.00
54556;BME280;57291;37.520;15.106;2024-03-02T09:57:46;101073.13;;;15.61;76.84
54556;BME280;57291;37.520;15.106;2024-03-02T10:00:16;101066.34;;;15.59;77.07
54556;BME280;57291;37.520;15.106;2024-03-02T10:02:44;101063.63;;;15.50;76.85
54556;BME280;57291;37.520;15.106;2024-03-02T10:05:11;101062.47;;;15.34;78.55
54556;BME280;57291;37.520;15.106;2024-03-02T10:07:39;101066.81;;;15.35;79.15
54556;BME280;57291;37.520;15.106;2024-03-02T10:10:14;101062.31;;;15.56;80.30
54556;BME280;57291;37.520;15.106;2024-03-02T10:12:42;101063.16;;;15.57;78.29
54556;BME280;57291;37.520;15.106;2024-03-02T10:15:10;101054.00;;;15.87;80.08
54556;BME280;57291;37.520;15.106;2024-03-02T10:17:37;101051.25;;;16.13;77.38
54556;BME280;57291;37.520;15.106;2024-03-02T10:20:25;101043.34;;;15.94;78.49
54556;BME280;57291;37.520;15.106;2024-03-02T10:22:52;101039.13;;;16.23;78.40
54556;BME280;57291;37.520;15.106;2024-03-02T10:25:30;101045.91;;;16.17;78.26
54556;BME280;57291;37.520;15.106;2024-03-02T10:28:17;101052.34;;;16.21;80.11
54556;BME280;57291;37.520;15.106;2024-03-02T10:30:47;101047.50;;;16.18;81.03
54556;BME280;57291;37.520;15.106;2024-03-02T10:33:18;101042.41;;;15.99;81.99
54556;BME280;57291;37.520;15.106;2024-03-02T10:35:48;101041.53;;;16.25;80.75
54556;BME280;57291;37.520;15.106;2024-03-02T10:38:17;101039.38;;;16.56;81.96
54556;BME280;57291;37.520;15.106;2024-03-02T10:40:47;101037.91;;;16.97;80.08
54556;BME280;57291;37.520;15.106;2024-03-02T10:43:19;101040.78;;;17.09;77.25
54556;BME280;57291;37.520;15.106;2024-03-02T10:45:49;101037.31;;;17.21;75.70
54556;BME280;57291;37.520;15.106;2024-03-02T10:48:18;101039.41;;;16.95;72.75
54556;BME280;57291;37.520;15.106;2024-03-02T10:50:46;101041.09;;;16.78;74.34
54556;BME280;57291;37.520;15.106;2024-03-02T10:53:13;101049.28;;;16.87;72.66
54556;BME280;57291;37.520;15.106;2024-03-02T10:55:40;101047.69;;;17.16;72.14
54556;BME280;57291;37.520;15.106;2024-03-02T10:58:12;101050.47;;;17.37;72.26
54556;BME280;57291;37.520;15.106;2024-03-02T11:00:43;101043.47;;;17.48;74.36
54556;BME280;57291;37.520;15.106;2024-03-02T11:03:13;101054.22;;;17.53;74.85
54556;BME280;57291;37.520;15.106;2024-03-02T11:05:44;101035.09;;;17.44;73.26
54556;BME280;57291;37.520;15.106;2024-03-02T11:08:13;101038.88;;;17.73;74.20
54556;BME280;57291;37.520;15.106;2024-03-02T11:10:57;101035.00;;;17.53;71.86
54556;BME280;57291;37.520;15.106;2024-03-02T11:13:31;101036.00;;;17.48;71.16
54556;BME280;57291;37.520;15.106;2024-03-02T11:16:34;101031.00;;;17.21;72.38
54556;BME280;57291;37.520;15.106;2024-03-02T11:19:07;101028.59;;;17.19;69.46
54556;BME280;57291;37.520;15.106;2024-03-02T11:21:39;101033.56;;;16.96;72.05
54556;BME280;57291;37.520;15.106;2024-03-02T11:26:54;101020.88;;;16.83;65.80
54556;BME280;57291;37.520;15.106;2024-03-02T11:32:16;101008.44;;;17.99;59.90
54556;BME280;57291;37.520;15.106;2024-03-02T11:34:49;101008.63;;;18.15;59.52
54556;BME280;57291;37.520;15.106;2024-03-02T11:37:18;101002.19;;;18.11;59.59
54556;BME280;57291;37.520;15.106;2024-03-02T11:39:49;101004.03;;;17.65;60.99
54556;BME280;57291;37.520;15.106;2024-03-02T11:42:18;101015.72;;;17.41;62.17
54556;BME280;57291;37.520;15.106;2024-03-02T11:44:46;101009.44;;;17.73;63.14
54556;BME280;57291;37.520;15.106;2024-03-02T11:47:15;101013.63;;;18.13;63.94
54556;BME280;57291;37.520;15.106;2024-03-02T11:49:45;100998.00;;;17.92;63.20
54556;BME280;57291;37.520;15.106;2024-03-02T11:52:13;100998.28;;;17.57;63.78
54556;BME280;57291;37.520;15.106;2024-03-02T11:54:43;101001.63;;;17.21;64.31
54556;BME280;57291;37.520;15.106;2024-03-02T11:57:20;101005.31;;;17.25;64.60
54556;BME280;57291;37.520;15.106;2024-03-02T11:59:51;100998.63;;;17.35;63.85
54556;BME280;57291;37.520;15.106;2024-03-02T12:02:19;101001.09;;;17.49;64.56
54556;BME280;57291;37.520;15.106;2024-03-02T12:04:48;100996.06;;;17.51;64.73
54556;BME280;57291;37.520;15.106;2024-03-02T12:07:20;101004.09;;;17.56;63.42
54556;BME280;57291;37.520;15.106;2024-03-02T12:10:01;101000.56;;;18.10;61.67
54556;BME280;57291;37.520;15.106;2024-03-02T12:12:30;101003.88;;;18.03;60.99
54556;BME280;57291;37.520;15.106;2024-03-02T12:14:57;101000.78;;;18.04;59.44
54556;BME280;57291;37.520;15.106;2024-03-02T12:17:27;101006.34;;;17.84;60.81
54556;BME280;57291;37.520;15.106;2024-03-02T12:19:54;101002.69;;;17.71;60.06
54556;BME280;57291;37.520;15.106;2024-03-02T12:22:22;101017.94;;;17.47;61.50
54556;BME280;57291;37.520;15.106;2024-03-02T12:24:49;101011.06;;;17.53;62.33
54556;BME280;57291;37.520;15.106;2024-03-02T12:27:17;101011.13;;;17.24;63.16
54556;BME280;57291;37.520;15.106;2024-03-02T12:29:45;101014.53;;;17.21;64.23
54556;BME280;57291;37.520;15.106;2024-03-02T12:32:13;101014.88;;;17.19;64.64
54556;BME280;57291;37.520;15.106;2024-03-02T12:34:40;101012.91;;;16.99;66.44
54556;BME280;57291;37.520;15.106;2024-03-02T12:37:07;101021.00;;;16.95;68.06
54556;BME280;57291;37.520;15.106;2024-03-02T12:39:35;101023.91;;;16.90;68.76
54556;BME280;57291;37.520;15.106;2024-03-02T12:42:02;101014.09;;;16.80;69.46
54556;BME280;57291;37.520;15.106;2024-03-02T12:44:30;101015.88;;;16.85;69.95
54556;BME280;57291;37.520;15.106;2024-03-02T12:46:57;101026.22;;;16.71;71.43
54556;BME280;57291;37.520;15.106;2024-03-02T12:49:27;101022.53;;;16.67;72.06
54556;BME280;57291;37.520;15.106;2024-03-02T12:51:57;101029.06;;;16.45;73.35
54556;BME280;57291;37.520;15.106;2024-03-02T12:54:25;101024.66;;;16.61;73.45
54556;BME280;57291;37.520;15.106;2024-03-02T12:56:56;101018.13;;;16.74;71.65
54556;BME280;57291;37.520;15.106;2024-03-02T12:59:24;101012.50;;;16.71;72.76
54556;BME280;57291;37.520;15.106;2024-03-02T13:01:54;101025.28;;;16.75;73.27
54556;BME280;57291;37.520;15.106;2024-03-02T13:04:25;101019.50;;;16.59;73.73
54556;BME280;57291;37.520;15.106;2024-03-02T13:06:53;101022.28;;;16.51;74.76